Time;durP1;ratioP1;P1;durP2;ratioP2;P2;SDS_P1;SDS_P2;PMS_P1;PMS_P2;Temp;Humidity;BMP_temperature;BMP_pressure;BME280_temperature;BME280_humidity;BME280_pressure;Samples;Min_cycle;Max_cycle;Signal;HPM_P1;HPM_P2
2022/11/15 00:00:29;;;;;;;2.45;2.25;;;6.60;99.90;;;;;;5028961;28;20226;-73
2022/11/15 00:02:56;;;;;;;3.60;2.30;;;6.60;99.90;;;;;;5029998;28;20200;-73
2022/11/15 00:05:23;;;;;;;3.40;2.25;;;6.70;99.90;;;;;;5029608;28;20932;-73
2022/11/15 00:07:49;;;;;;;3.25;2.72;;;6.70;99.90;;;;;;5029999;28;20296;-72
2022/11/15 00:10:16;;;;;;;3.25;2.45;;;6.70;99.90;;;;;;5029089;28;20226;-72
2022/11/15 00:12:45;;;;;;;4.15;2.05;;;6.70;99.90;;;;;;5029480;28;20210;-74
2022/11/15 00:15:11;;;;;;;2.60;2.30;;;6.60;99.90;;;;;;5029690;28;20233;-74
2022/11/15 00:17:38;;;;;;;2.17;1.95;;;6.70;99.90;;;;;;5029634;28;20779;-74
2022/11/15 00:20:06;;;;;;;2.25;2.05;;;6.70;99.90;;;;;;5029990;28;20222;-72
2022/11/15 00:22:33;;;;;;;2.22;2.00;;;6.70;99.90;;;;;;5028831;28;20217;-73
2022/11/15 00:24:59;;;;;;;2.20;2.00;;;6.70;99.90;;;;;;5029503;28;20204;-73
2022/11/15 00:27:27;;;;;;;2.60;1.90;;;6.70;99.90;;;;;;5028909;28;20752;-75
2022/11/15 00:29:55;;;;;;;2.95;2.67;;;6.70;99.90;;;;;;5029263;28;20236;-73
2022/11/15 00:32:21;;;;;;;2.22;1.77;;;6.80;99.90;;;;;;5028784;28;20574;-73
2022/11/15 00:34:48;;;;;;;2.35;1.70;;;6.80;99.90;;;;;;5029183;28;20582;-73
2022/11/15 00:37:15;;;;;;;2.83;2.40;;;6.80;99.90;;;;;;5029193;28;20202;-74
2022/11/15 00:39:42;;;;;;;3.38;2.20;;;6.90;99.90;;;;;;5028970;28;20220;-73
2022/11/15 00:42:09;;;;;;;2.15;1.95;;;6.90;99.90;;;;;;5028798;28;20202;-74
2022/11/15 00:44:35;;;;;;;1.95;1.67;;;6.90;99.90;;;;;;5028925;28;20546;-74
2022/11/15 00:47:03;;;;;;;1.92;1.60;;;6.90;99.90;;;;;;5029255;28;20214;-73
2022/11/15 00:49:30;;;;;;;2.20;2.00;;;6.90;99.90;;;;;;5028527;28;20206;-75
2022/11/15 00:51:57;;;;;;;2.10;1.90;;;6.90;99.90;;;;;;5028532;28;20224;-73
2022/11/15 00:54:24;;;;;;;1.98;1.80;;;7.00;99.90;;;;;;5028863;28;20232;-73
2022/11/15 00:56:50;;;;;;;3.95;2.00;;;6.90;99.90;;;;;;5028805;28;20850;-72
2022/11/15 00:59:17;;;;;;;2.83;2.40;;;7.00;99.90;;;;;;5028952;28;20221;-72
2022/11/15 01:01:44;;;;;;;3.15;1.75;;;6.90;99.90;;;;;;5028122;28;20230;-73
2022/11/15 01:04:12;;;;;;;2.97;1.90;;;7.00;99.90;;;;;;5028789;28;20220;-74
2022/11/15 01:06:39;;;;;;;2.47;1.92;;;7.00;99.90;;;;;;5029057;28;20211;-75
2022/11/15 01:09:05;;;;;;;2.83;2.17;;;7.00;99.90;;;;;;5028810;28;20198;-72
2022/11/15 01:11:32;;;;;;;3.33;2.10;;;7.00;99.90;;;;;;5027553;28;20234;-72
2022/11/15 01:13:59;;;;;;;1.85;1.75;;;6.90;99.90;;;;;;5028819;28;20206;-73
2022/11/15 01:16:25;;;;;;;2.30;1.98;;;6.90;99.90;;;;;;5028420;28;20665;-73
2022/11/15 01:18:52;;;;;;;2.70;1.90;;;6.90;99.90;;;;;;5028609;28;20213;-73
2022/11/15 01:21:21;;;;;;;2.53;1.80;;;6.90;99.90;;;;;;5027761;28;20222;-73
2022/11/15 01:23:48;;;;;;;2.60;2.40;;;6.90;99.90;;;;;;5028132;28;20910;-73
2022/11/15 01:26:16;;;;;;;2.05;1.85;;;6.90;99.90;;;;;;5028356;28;20209;-73
2022/11/15 01:28:43;;;;;;;1.73;1.60;;;6.80;99.90;;;;;;5028164;28;20213;-74
2022/11/15 01:31:13;;;;;;;2.55;2.35;;;6.80;99.90;;;;;;5027720;28;20226;-74
2022/11/15 01:33:40;;;;;;;2.13;1.92;;;6.70;99.90;;;;;;5028593;28;20202;-73
2022/11/15 01:36:11;;;;;;;1.77;1.67;;;6.70;99.90;;;;;;5072478;22;20508;-95
2022/11/15 01:38:39;;;;;;;2.50;2.00;;;6.70;99.90;;;;;;5047486;28;20221;-93
2022/11/15 01:41:07;;;;;;;1.73;1.63;;;6.60;99.90;;;;;;5036093;28;20209;-94
2022/11/15 01:43:36;;;;;;;3.15;2.70;;;6.60;99.90;;;;;;5035149;28;20203;-93
2022/11/15 01:46:14;;;;;;;2.83;2.38;;;6.60;99.90;;;;;;5030798;28;20695;-93
2022/11/15 01:48:41;;;;;;;2.95;2.30;;;6.60;99.90;;;;;;5030578;28;20295;-94
2022/11/15 01:51:12;;;;;;;3.03;2.70;;;6.50;99.90;;;;;;5030986;28;20750;-93
2022/11/15 01:53:45;;;;;;;5.90;2.38;;;6.40;99.90;;;;;;5034508;28;20232;-95
2022/11/15 01:56:17;;;;;;;4.72;2.35;;;6.40;99.90;;;;;;5033390;28;20278;-94
2022/11/15 01:58:59;;;;;;;3.50;2.30;;;6.30;99.90;;;;;;5034782;28;20194;-95
2022/11/15 02:01:39;;;;;;;2.72;2.08;;;6.30;99.90;;;;;;5036984;28;20233;-96
2022/11/15 02:04:12;;;;;;;1.80;1.70;;;6.30;99.90;;;;;;5032246;28;20218;-95
2022/11/15 02:06:42;;;;;;;2.33;2.13;;;6.20;99.90;;;;;;5034595;28;20239;-95
2022/11/15 02:09:11;;;;;;;2.97;2.28;;;6.20;99.90;;;;;;5031862;28;20228;-94
2022/11/15 02:11:38;;;;;;;3.83;2.28;;;6.20;99.90;;;;;;5028237;28;20256;-94
2022/11/15 02:14:07;;;;;;;4.55;2.50;;;6.20;99.90;;;;;;5030756;28;20210;-95
2022/11/15 02:16:48;;;;;;;2.65;2.20;;;6.10;99.90;;;;;;5028318;28;20231;-96
2022/11/15 02:19:37;;;;;;;2.25;2.00;;;6.10;99.90;;;;;;5030061;28;20211;-95
2022/11/15 02:22:18;;;;;;;3.20;2.50;;;6.00;99.90;;;;;;5030473;28;20210;-94
2022/11/15 02:25:21;;;;;;;2.67;2.03;;;6.00;99.90;;;;;;5031846;28;20206;-94
2022/11/15 02:28:29;;;;;;;5.10;2.80;;;5.90;99.90;;;;;;5031839;28;20813;-94
2022/11/15 02:31:07;;;;;;;1.95;1.85;;;6.00;99.90;;;;;;5030836;28;20233;-95
2022/11/15 02:33:41;;;;;;;2.30;1.80;;;5.90;99.90;;;;;;5030455;28;20203;-94
2022/11/15 02:36:16;;;;;;;2.28;2.08;;;5.90;99.90;;;;;;5030237;28;20253;-93
2022/11/15 02:38:55;;;;;;;2.25;1.95;;;5.90;99.90;;;;;;5028758;28;20222;-94
2022/11/15 02:41:32;;;;;;;2.13;1.92;;;5.90;99.90;;;;;;5030012;28;20198;-94
2022/11/15 02:44:03;;;;;;;3.17;2.35;;;5.90;99.90;;;;;;5030494;28;20210;-94
2022/11/15 02:49:30;;;;;;;2.30;2.10;;;5.90;99.90;;;;;;5014493;28;20199;-94
2022/11/15 02:51:57;;;;;;;2.53;2.00;;;5.90;99.90;;;;;;5034117;28;20210;-95
2022/11/15 02:54:54;;;;;;;3.08;1.98;;;5.90;99.90;;;;;;5035858;28;20203;-94
2022/11/15 02:57:50;;;;;;;2.22;1.90;;;5.90;99.90;;;;;;5036325;28;20275;-94
2022/11/15 03:00:22;;;;;;;2.45;2.25;;;5.90;99.90;;;;;;5037799;28;20198;-94
2022/11/15 03:03:23;;;;;;;2.13;1.88;;;5.90;99.90;;;;;;5038576;28;20253;-94
2022/11/15 03:05:59;;;;;;;2.63;2.17;;;5.90;99.90;;;;;;5035663;28;20199;-94
2022/11/15 03:08:32;;;;;;;2.05;1.83;;;5.80;99.90;;;;;;5035676;28;20288;-94
2022/11/15 03:11:10;;;;;;;2.47;1.98;;;5.80;99.90;;;;;;5036314;28;20203;-95
2022/11/15 03:13:40;;;;;;;1.85;1.70;;;5.80;99.90;;;;;;5049039;22;20230;-74
2022/11/15 03:16:14;;;;;;;2.42;2.22;;;5.80;99.90;;;;;;4996171;28;20223;-74
2022/11/15 03:18:48;;;;;;;2.50;1.95;;;5.80;99.90;;;;;;4994944;28;20877;-73
2022/11/15 03:21:16;;;;;;;3.28;2.13;;;5.80;99.90;;;;;;4994025;28;20254;-74
2022/11/15 03:23:45;;;;;;;2.20;2.00;;;5.70;99.90;;;;;;4994425;28;20207;-73
2022/11/15 03:26:15;;;;;;;2.10;1.90;;;5.70;99.90;;;;;;4994430;28;20846;-74
2022/11/15 03:28:48;;;;;;;2.67;1.80;;;5.80;99.90;;;;;;4994014;28;20230;-73
2022/11/15 03:34:05;;;;;;;4.03;2.50;;;5.80;99.90;;;;;;4986859;28;20202;-74
2022/11/15 03:36:34;;;;;;;3.75;2.85;;;5.80;99.90;;;;;;4994490;28;20231;-74
2022/11/15 03:39:05;;;;;;;2.00;1.90;;;5.80;99.90;;;;;;4993834;28;20207;-73
2022/11/15 03:41:38;;;;;;;2.60;2.08;;;5.80;99.90;;;;;;4993879;28;20227;-74
2022/11/15 03:44:14;;;;;;;2.30;2.10;;;5.80;99.90;;;;;;4993918;28;20212;-73
2022/11/15 03:46:47;;;;;;;2.83;2.33;;;5.80;99.90;;;;;;4994326;28;20610;-73
2022/11/15 03:49:20;;;;;;;3.63;1.77;;;5.90;99.90;;;;;;4993729;28;20204;-73
2022/11/15 03:51:47;;;;;;;2.55;1.90;;;5.90;99.90;;;;;;4993354;28;20600;-74
2022/11/15 03:54:14;;;;;;;2.95;1.85;;;5.90;99.90;;;;;;4993684;28;20203;-73
2022/11/15 03:56:41;;;;;;;2.20;2.00;;;5.90;99.90;;;;;;4994009;28;20245;-74
2022/11/15 03:59:08;;;;;;;2.30;1.85;;;5.90;99.90;;;;;;4993660;28;20697;-73
2022/11/15 04:01:35;;;;;;;3.65;2.40;;;5.90;99.90;;;;;;4992264;28;20236;-73
2022/11/15 04:04:01;;;;;;;1.98;1.77;;;5.90;99.90;;;;;;4993671;28;20202;-74
2022/11/15 04:06:29;;;;;;;4.88;2.00;;;6.00;99.90;;;;;;4993730;28;20196;-73
2022/11/15 04:08:56;;;;;;;2.28;2.00;;;6.00;99.90;;;;;;4993663;28;20203;-74
2022/11/15 04:11:23;;;;;;;1.70;1.52;;;5.90;99.90;;;;;;4992750;28;20607;-74
2022/11/15 04:13:50;;;;;;;2.40;2.20;;;6.00;99.90;;;;;;4993613;28;20226;-73
2022/11/15 04:16:16;;;;;;;2.30;2.10;;;6.00;99.90;;;;;;4993197;28;20224;-73
2022/11/15 04:18:43;;;;;;;2.10;1.90;;;6.00;99.90;;;;;;4993602;28;20203;-74
2022/11/15 04:24:13;;;;;;;2.65;1.95;;;6.00;99.90;;;;;;4993169;28;20203;-73
2022/11/15 04:26:40;;;;;;;3.42;1.90;;;6.00;99.90;;;;;;4993256;28;20561;-73
2022/11/15 04:31:51;;;;;;;2.10;1.88;;;5.90;99.90;;;;;;4992599;28;20595;-73
2022/11/15 04:34:18;;;;;;;2.05;1.85;;;6.00;99.90;;;;;;4995363;28;20218;-72
2022/11/15 04:39:30;;;;;;;3.05;2.05;;;5.90;99.90;;;;;;5009415;28;20234;-72
2022/11/15 04:41:57;;;;;;;4.50;1.70;;;5.90;99.90;;;;;;5011482;28;20198;-73
2022/11/15 04:44:23;;;;;;;2.33;1.90;;;5.90;99.90;;;;;;5011836;28;20195;-72
2022/11/15 04:46:50;;;;;;;2.33;2.10;;;5.90;99.90;;;;;;5011762;28;20192;-73
2022/11/15 04:49:17;;;;;;;2.17;1.98;;;5.90;99.90;;;;;;5011479;28;20209;-74
2022/11/15 04:51:43;;;;;;;2.80;2.08;;;5.90;99.90;;;;;;5010765;28;20466;-72
2022/11/15 04:54:10;;;;;;;2.55;1.95;;;6.00;99.90;;;;;;5011004;28;20217;-72
2022/11/15 04:56:38;;;;;;;2.00;1.80;;;5.90;99.90;;;;;;5011658;28;20564;-72
2022/11/15 04:59:05;;;;;;;2.72;1.98;;;5.90;99.90;;;;;;5011105;28;20196;-72
2022/11/15 05:01:32;;;;;;;2.00;1.80;;;5.90;99.90;;;;;;4998733;28;20594;-72
2022/11/15 05:06:43;;;;;;;2.95;2.20;;;5.90;99.90;;;;;;5009122;28;20219;-72
2022/11/15 05:09:10;;;;;;;3.65;1.85;;;5.90;99.90;;;;;;5010625;28;20198;-73
2022/11/15 05:11:38;;;;;;;2.58;2.38;;;5.90;99.90;;;;;;5010073;28;20234;-72
2022/11/15 05:14:05;;;;;;;3.13;2.05;;;5.90;99.90;;;;;;5010324;28;20670;-73
2022/11/15 05:16:31;;;;;;;2.65;2.40;;;5.90;99.90;;;;;;5010652;28;20222;-73
2022/11/15 05:18:58;;;;;;;4.57;2.20;;;5.90;99.90;;;;;;5010476;28;20206;-72
2022/11/15 05:21:25;;;;;;;2.92;2.63;;;5.90;99.90;;;;;;5009627;28;20462;-71
2022/11/15 05:23:52;;;;;;;3.83;2.85;;;5.90;99.90;;;;;;5010712;28;20206;-70
2022/11/15 05:26:19;;;;;;;2.67;2.47;;;5.80;99.90;;;;;;5011278;28;20195;-71
2022/11/15 05:28:47;;;;;;;2.72;2.53;;;5.80;99.90;;;;;;5010830;28;20201;-71
2022/11/15 05:31:16;;;;;;;3.13;2.70;;;5.90;99.90;;;;;;5010750;28;20737;-70
2022/11/15 05:33:44;;;;;;;3.42;3.03;;;5.80;99.90;;;;;;5009524;28;20210;-70
2022/11/15 05:36:16;;;;;;;3.33;2.60;;;5.90;99.90;;;;;;5009515;28;20227;-70
2022/11/15 05:38:43;;;;;;;3.65;2.47;;;5.90;99.90;;;;;;5009381;28;20203;-70
2022/11/15 05:41:10;;;;;;;4.72;2.45;;;5.90;99.90;;;;;;5009256;28;20265;-71
2022/11/15 05:43:40;;;;;;;4.32;2.38;;;5.90;99.90;;;;;;5009867;28;20210;-71
2022/11/15 05:46:08;;;;;;;2.20;1.75;;;5.90;99.90;;;;;;5011655;28;20195;-71
2022/11/15 05:48:37;;;;;;;2.63;1.90;;;5.90;99.90;;;;;;5011992;28;20207;-71
2022/11/15 05:51:05;;;;;;;3.05;2.67;;;5.90;99.90;;;;;;5011590;28;20227;-71
2022/11/15 05:53:32;;;;;;;2.90;2.60;;;5.90;99.90;;;;;;5012134;28;20210;-71
2022/11/15 05:55:59;;;;;;;3.20;2.70;;;5.90;99.90;;;;;;5011842;28;20219;-71
2022/11/15 05:58:26;;;;;;;3.25;2.55;;;5.90;99.90;;;;;;5011682;28;20202;-71
2022/11/15 06:00:53;;;;;;;3.45;2.63;;;5.90;99.90;;;;;;5010826;28;20223;-71
2022/11/15 06:03:21;;;;;;;2.90;2.70;;;5.90;99.90;;;;;;5011750;28;20214;-71
2022/11/15 06:05:47;;;;;;;3.05;2.80;;;5.90;99.90;;;;;;5011768;28;20203;-71
2022/11/15 06:08:14;;;;;;;3.97;2.90;;;5.90;99.90;;;;;;5011533;28;20215;-70
2022/11/15 06:10:41;;;;;;;2.90;2.50;;;5.80;99.90;;;;;;5010940;28;20219;-71
2022/11/15 06:13:08;;;;;;;3.00;2.70;;;5.80;99.90;;;;;;5011567;28;20207;-71
2022/11/15 06:15:35;;;;;;;3.28;2.97;;;5.80;99.90;;;;;;5011513;28;20613;-71
2022/11/15 06:18:02;;;;;;;3.58;3.00;;;5.80;99.90;;;;;;5011493;28;20708;-71
2022/11/15 06:20:31;;;;;;;6.15;3.63;;;5.80;99.90;;;;;;5011260;28;20595;-71
2022/11/15 06:22:59;;;;;;;3.80;3.50;;;5.80;99.90;;;;;;5011210;28;20214;-70
2022/11/15 06:25:26;;;;;;;3.80;3.25;;;5.80;99.90;;;;;;5011682;28;20701;-70
2022/11/15 06:27:53;;;;;;;2.92;2.72;;;5.70;99.90;;;;;;5011525;28;20206;-71
2022/11/15 06:30:20;;;;;;;2.90;2.50;;;5.70;99.90;;;;;;5011275;28;20891;-72
2022/11/15 06:32:47;;;;;;;5.32;3.33;;;5.70;99.90;;;;;;5011290;28;20206;-71
2022/11/15 06:35:14;;;;;;;5.07;3.65;;;5.70;99.90;;;;;;5011425;28;20206;-72
2022/11/15 06:37:42;;;;;;;3.42;2.67;;;5.70;99.90;;;;;;5011737;28;20219;-71
2022/11/15 06:40:10;;;;;;;3.20;2.65;;;5.70;99.90;;;;;;5010984;28;20227;-72
2022/11/15 06:42:37;;;;;;;3.22;2.83;;;5.70;99.90;;;;;;5010769;28;20222;-71
2022/11/15 06:45:04;;;;;;;3.80;3.20;;;5.70;99.90;;;;;;5011358;28;20216;-72
2022/11/15 06:47:31;;;;;;;2.90;2.63;;;5.70;99.90;;;;;;5011441;28;20211;-70
2022/11/15 06:49:58;;;;;;;3.13;2.83;;;5.80;99.90;;;;;;5011038;28;20226;-71
2022/11/15 06:52:24;;;;;;;3.67;2.85;;;5.80;99.90;;;;;;5010716;28;20203;-71
2022/11/15 06:54:56;;;;;;;3.50;2.40;;;5.80;99.90;;;;;;5011103;28;20213;-72
2022/11/15 06:57:22;;;;;;;3.40;2.90;;;5.80;99.90;;;;;;5011309;28;20291;-72
2022/11/15 06:59:49;;;;;;;2.67;2.47;;;5.90;99.90;;;;;;5010875;28;20222;-72
2022/11/15 07:02:16;;;;;;;3.20;2.83;;;5.90;99.90;;;;;;5010476;28;20207;-71
2022/11/15 07:04:43;;;;;;;3.30;2.40;;;5.90;99.90;;;;;;5011149;28;20203;-71
2022/11/15 07:07:10;;;;;;;3.63;2.65;;;6.00;99.90;;;;;;5010927;28;20203;-72
2022/11/15 07:09:37;;;;;;;4.22;2.80;;;6.00;99.90;;;;;;5010556;28;20588;-71
2022/11/15 07:12:06;;;;;;;2.85;2.65;;;6.10;99.90;;;;;;5010402;28;20581;-71
2022/11/15 07:14:32;;;;;;;2.70;2.33;;;6.10;99.90;;;;;;5010907;28;20211;-72
2022/11/15 07:16:59;;;;;;;2.75;2.55;;;6.10;99.90;;;;;;5010641;28;20307;-71
2022/11/15 07:19:26;;;;;;;3.75;2.28;;;6.20;99.90;;;;;;5010729;28;20203;-71
2022/11/15 07:21:53;;;;;;;2.85;2.50;;;6.20;99.90;;;;;;5010228;28;20250;-71
2022/11/15 07:24:19;;;;;;;2.80;2.50;;;6.30;99.90;;;;;;5011012;28;20674;-72
2022/11/15 07:26:46;;;;;;;2.45;2.25;;;6.30;99.90;;;;;;5010985;28;20215;-72
2022/11/15 07:29:14;;;;;;;3.20;2.90;;;6.40;99.90;;;;;;5010698;28;20204;-72
2022/11/15 07:31:41;;;;;;;4.38;2.60;;;6.40;99.90;;;;;;5009958;28;20238;-71
2022/11/15 07:34:08;;;;;;;3.72;2.83;;;6.50;99.90;;;;;;5010633;28;20203;-71
2022/11/15 07:36:35;;;;;;;4.07;2.60;;;6.70;99.90;;;;;;5025240;23;20231;-69
2022/11/15 07:39:01;;;;;;;3.00;2.70;;;6.80;99.90;;;;;;5007495;28;20543;-71
2022/11/15 07:41:29;;;;;;;5.30;2.85;;;7.10;99.90;;;;;;5002527;28;20730;-70
2022/11/15 07:43:57;;;;;;;2.67;2.38;;;7.30;99.90;;;;;;5004420;28;20195;-71
2022/11/15 07:46:25;;;;;;;2.67;2.20;;;7.50;99.90;;;;;;5002847;28;20220;-71
2022/11/15 07:48:52;;;;;;;3.13;2.85;;;7.70;99.90;;;;;;5013533;28;20207;-71
2022/11/15 07:51:18;;;;;;;4.22;3.13;;;7.80;99.90;;;;;;5012793;28;20234;-70
2022/11/15 07:53:45;;;;;;;3.53;2.90;;;7.90;99.90;;;;;;5013308;28;20209;-69
2022/11/15 07:56:12;;;;;;;5.70;3.10;;;8.10;99.90;;;;;;5013455;28;20697;-70
2022/11/15 07:58:39;;;;;;;3.00;2.70;;;8.30;99.90;;;;;;5013044;28;20222;-70
2022/11/15 08:01:07;;;;;;;3.75;2.70;;;8.50;99.90;;;;;;5012474;28;20750;-70
2022/11/15 08:03:35;;;;;;;4.45;3.25;;;8.60;99.90;;;;;;5012929;28;20203;-69
2022/11/15 08:06:03;;;;;;;2.88;2.67;;;8.80;99.90;;;;;;5013372;28;20222;-70
2022/11/15 08:08:29;;;;;;;3.70;2.85;;;8.90;99.90;;;;;;5012907;28;20213;-71
2022/11/15 08:10:58;;;;;;;4.60;2.63;;;9.10;99.90;;;;;;5012672;28;20605;-70
2022/11/15 08:13:25;;;;;;;3.55;2.67;;;9.30;99.90;;;;;;5012971;28;20206;-70
2022/11/15 08:15:51;;;;;;;2.53;2.30;;;9.40;99.90;;;;;;5012349;28;20210;-71
2022/11/15 08:18:18;;;;;;;3.13;2.50;;;9.80;99.90;;;;;;5012793;28;20230;-70
2022/11/15 08:20:46;;;;;;;2.72;2.13;;;10.00;99.90;;;;;;5012346;28;20258;-70
2022/11/15 08:23:13;;;;;;;2.67;2.10;;;10.20;99.90;;;;;;5012783;28;20207;-69
2022/11/15 08:25:40;;;;;;;5.90;2.25;;;10.50;99.90;;;;;;5012878;28;20727;-71
2022/11/15 08:28:10;;;;;;;2.72;2.53;;;11.10;99.90;;;;;;5013122;28;20210;-70
2022/11/15 08:30:38;;;;;;;2.38;2.17;;;11.60;99.90;;;;;;5011673;28;20238;-71
2022/11/15 08:33:05;;;;;;;2.85;1.77;;;12.10;99.90;;;;;;5012932;28;20670;-70
2022/11/15 08:35:32;;;;;;;3.28;2.17;;;12.40;99.90;;;;;;5012418;28;20261;-70
2022/11/15 08:38:00;;;;;;;2.17;1.80;;;12.50;99.90;;;;;;5012665;28;20234;-70
2022/11/15 08:40:27;;;;;;;4.22;1.70;;;12.80;99.90;;;;;;5011536;28;20992;-70
2022/11/15 08:42:54;;;;;;;2.10;1.90;;;13.00;99.90;;;;;;5012670;28;20249;-70
2022/11/15 08:45:21;;;;;;;2.30;1.97;;;13.60;99.90;;;;;;5012232;28;20516;-69
2022/11/15 08:47:48;;;;;;;2.77;1.97;;;14.30;99.90;;;;;;5012439;28;20454;-71
2022/11/15 08:50:15;;;;;;;3.73;2.23;;;15.40;99.90;;;;;;5012369;28;20486;-70
2022/11/15 08:52:41;;;;;;;3.47;3.17;;;16.60;99.90;;;;;;5012118;28;20870;-70
2022/11/15 08:55:10;;;;;;;2.77;2.03;;;17.30;99.90;;;;;;5005254;28;20482;-70
2022/11/15 08:57:37;;;;;;;2.07;1.87;;;17.10;99.90;;;;;;4990672;28;20478;-71
2022/11/15 09:00:06;;;;;;;2.40;2.20;;;17.40;99.90;;;;;;4991447;28;20489;-70
2022/11/15 09:02:33;;;;;;;3.20;2.07;;;17.70;99.90;;;;;;4990653;28;20474;-70
2022/11/15 09:05:01;;;;;;;2.70;1.77;;;18.00;99.90;;;;;;4991420;28;20477;-70
2022/11/15 09:07:29;;;;;;;2.10;1.90;;;18.40;99.90;;;;;;4991380;28;20863;-68
2022/11/15 09:09:56;;;;;;;2.83;2.20;;;18.80;99.90;;;;;;4995156;28;20938;-70
2022/11/15 09:12:25;;;;;;;2.30;1.87;;;18.80;99.90;;;;;;4992612;28;20534;-70
2022/11/15 09:14:52;;;;;;;3.10;2.30;;;18.30;99.90;;;;;;4991421;28;20459;-70
2022/11/15 09:17:19;;;;;;;3.20;1.90;;;17.50;99.90;;;;;;4990669;28;20479;-69
2022/11/15 09:19:45;;;;;;;2.30;2.10;;;16.80;99.90;;;;;;4991323;28;20462;-70
2022/11/15 09:22:12;;;;;;;1.60;1.50;;;16.10;99.90;;;;;;4991207;28;20463;-69
2022/11/15 09:24:39;;;;;;;2.00;1.80;;;15.70;99.90;;;;;;4990969;28;20451;-69
2022/11/15 09:27:08;;;;;;;2.20;2.00;;;15.40;99.90;;;;;;4990747;28;20819;-70
2022/11/15 09:29:37;;;;;;;2.10;1.90;;;15.30;99.90;;;;;;4990562;28;20463;-69
2022/11/15 09:32:03;;;;;;;2.93;1.37;;;15.10;99.90;;;;;;4990652;28;20517;-69
2022/11/15 09:34:30;;;;;;;2.20;1.83;;;15.30;99.90;;;;;;4991480;28;20463;-70
2022/11/15 09:36:57;;;;;;;3.00;1.67;;;15.80;99.90;;;;;;5005761;28;20485;-70
2022/11/15 09:39:24;;;;;;;1.60;1.50;;;15.80;99.90;;;;;;5009941;28;20458;-70
2022/11/15 09:42:23;;;;;;;1.60;1.50;;;15.90;99.90;;;;;;4990343;28;20873;-69
2022/11/15 09:45:06;;;;;;;2.80;1.60;;;16.40;99.90;;;;;;4982643;28;20469;-70
2022/11/15 09:47:58;;;;;;;1.73;1.63;;;16.80;99.90;;;;;;4990464;28;20458;-69
2022/11/15 09:50:35;;;;;;;1.80;1.70;;;16.70;99.90;;;;;;4989951;28;20589;-69
2022/11/15 09:53:02;;;;;;;1.80;1.60;;;16.10;99.90;;;;;;4990571;28;20833;-70
2022/11/15 09:55:49;;;;;;;2.07;1.87;;;15.80;99.90;;;;;;4990434;28;20469;-68
2022/11/15 09:58:26;;;;;;;2.13;1.37;;;15.70;99.90;;;;;;4989793;28;20861;-69
2022/11/15 10:00:54;;;;;;;2.60;1.67;;;15.80;99.90;;;;;;4989956;28;20548;-69
2022/11/15 10:03:28;;;;;;;2.20;1.87;;;15.80;99.90;;;;;;4990176;28;20550;-68
2022/11/15 10:05:58;;;;;;;1.83;1.70;;;15.40;99.90;;;;;;4989968;28;20503;-69
2022/11/15 10:08:49;;;;;;;2.80;1.63;;;15.00;99.90;;;;;;4988767;28;20490;-69
2022/11/15 10:11:20;;;;;;;5.20;1.90;;;14.70;99.90;;;;;;4985342;28;20485;-70
2022/11/15 10:13:49;;;;;;;2.40;1.80;;;14.50;99.90;;;;;;4989911;28;20458;-70
2022/11/15 10:16:51;;;;;;;2.00;1.80;;;14.40;99.90;;;;;;4990744;28;20854;-70
2022/11/15 10:19:26;;;;;;;1.50;1.37;;;14.30;99.90;;;;;;4966124;28;20461;-70
2022/11/15 10:22:04;;;;;;;1.63;1.53;;;14.30;99.90;;;;;;4990119;28;20887;-69
2022/11/15 10:24:36;;;;;;;2.67;1.37;;;14.30;99.90;;;;;;4990048;28;20478;-70
2022/11/15 10:27:11;;;;;;;1.20;1.10;;;14.40;99.90;;;;;;4990781;28;20455;-70
2022/11/15 10:29:44;;;;;;;2.07;1.70;;;14.40;99.90;;;;;;4990581;28;20461;-73
2022/11/15 10:32:14;;;;;;;2.53;1.67;;;14.60;99.90;;;;;;4990769;28;20454;-71
2022/11/15 10:34:40;;;;;;;1.63;1.40;;;14.90;99.90;;;;;;4990528;28;20458;-71
2022/11/15 10:37:07;;;;;;;1.93;1.37;;;15.00;99.90;;;;;;4990913;28;20509;-71
2022/11/15 10:42:44;;;;;;;1.73;1.50;;;15.00;99.90;;;;;;5005996;28;20457;-71
2022/11/15 10:45:25;;;;;;;1.47;1.33;;;14.90;99.90;;;;;;5009618;28;20468;-72
2022/11/15 10:47:53;;;;;;;1.50;1.40;;;14.80;99.90;;;;;;5009572;28;20450;-72
2022/11/15 10:50:29;;;;;;;1.93;1.27;;;14.60;99.90;;;;;;5009070;28;20482;-72
2022/11/15 10:52:57;;;;;;;2.90;1.53;;;14.50;99.90;;;;;;5009801;28;20812;-71
2022/11/15 10:55:30;;;;;;;2.30;1.30;;;14.20;99.90;;;;;;5008945;28;20451;-71
2022/11/15 10:58:04;;;;;;;1.87;1.70;;;14.10;99.90;;;;;;5009807;28;20849;-72
2022/11/15 11:00:35;;;;;;;2.73;1.80;;;14.00;99.90;;;;;;5008895;28;20527;-72
2022/11/15 11:03:06;;;;;;;4.03;1.53;;;13.90;99.90;;;;;;5009382;28;20949;-71
2022/11/15 11:05:36;;;;;;;2.50;1.90;;;13.80;99.90;;;;;;5009613;28;20907;-74
2022/11/15 11:08:05;;;;;;;2.27;1.73;;;13.80;99.90;;;;;;5009187;28;20453;-73
2022/11/15 11:10:33;;;;;;;1.83;1.67;;;13.70;99.90;;;;;;5010908;28;20855;-73
2022/11/15 11:13:14;;;;;;;1.63;1.53;;;13.60;99.90;;;;;;5013284;28;20469;-73
2022/11/15 11:15:47;;;;;;;2.10;1.80;;;13.60;99.90;;;;;;5013010;28;20462;-73
2022/11/15 11:18:23;;;;;;;2.70;1.97;;;13.50;99.90;;;;;;5013588;28;20481;-73
2022/11/15 11:20:55;;;;;;;2.67;2.00;;;13.60;99.90;;;;;;5012408;28;20531;-73
2022/11/15 11:23:42;;;;;;;1.40;1.30;;;13.60;99.90;;;;;;5012776;28;20457;-73
2022/11/15 11:26:27;;;;;;;2.03;1.60;;;13.70;99.90;;;;;;5013045;28;20936;-72
2022/11/15 11:29:02;;;;;;;1.70;1.43;;;13.80;99.90;;;;;;5013279;28;20454;-73
2022/11/15 11:31:36;;;;;;;3.77;1.80;;;13.80;99.90;;;;;;5011764;28;20508;-73
2022/11/15 11:34:16;;;;;;;1.67;1.50;;;13.90;99.90;;;;;;5013423;28;20461;-73
2022/11/15 11:36:50;;;;;;;3.33;2.30;;;13.90;99.90;;;;;;5013056;28;20466;-73
2022/11/15 11:39:29;;;;;;;3.10;1.77;;;13.80;99.90;;;;;;5012265;28;20485;-73
2022/11/15 11:42:04;;;;;;;1.80;1.57;;;13.90;99.90;;;;;;5012685;28;20465;-72
2022/11/15 11:44:37;;;;;;;1.40;1.10;;;13.90;99.90;;;;;;5012283;28;20841;-72
2022/11/15 11:47:10;;;;;;;3.00;1.70;;;13.90;99.90;;;;;;5012652;28;20465;-72
2022/11/15 11:49:45;;;;;;;1.70;1.50;;;14.10;99.90;;;;;;5012304;28;20458;-72
2022/11/15 11:52:17;;;;;;;1.90;1.70;;;14.10;99.90;;;;;;5012731;28;20551;-72
2022/11/15 11:54:55;;;;;;;2.23;1.70;;;14.20;99.90;;;;;;5012402;28;20464;-72
2022/11/15 11:57:31;;;;;;;1.50;1.37;;;14.20;99.90;;;;;;5011873;28;20464;-73
2022/11/15 12:00:04;;;;;;;3.10;1.60;;;14.30;99.90;;;;;;5012012;28;20517;-72
2022/11/15 12:02:36;;;;;;;1.80;1.53;;;14.50;99.90;;;;;;5012016;28;20940;-72
2022/11/15 12:05:14;;;;;;;2.87;1.63;;;14.70;99.90;;;;;;5012702;28;20461;-72
2022/11/15 12:07:43;;;;;;;1.70;1.40;;;14.90;99.90;;;;;;5011684;28;21172;-72
2022/11/15 12:10:19;;;;;;;1.80;1.30;;;15.10;99.90;;;;;;5012155;28;20478;-72
2022/11/15 12:12:55;;;;;;;1.90;1.60;;;15.00;99.90;;;;;;5012107;28;20461;-72
2022/11/15 12:15:25;;;;;;;1.93;1.53;;;14.90;99.90;;;;;;5011905;28;20536;-73
2022/11/15 12:17:52;;;;;;;1.57;1.40;;;14.70;99.90;;;;;;5011593;28;20996;-70
2022/11/15 12:20:23;;;;;;;1.40;1.30;;;14.60;99.90;;;;;;5011097;28;20485;-70
2022/11/15 12:22:56;;;;;;;1.73;1.53;;;14.60;99.90;;;;;;5011262;28;20688;-68
2022/11/15 12:25:29;;;;;;;1.27;1.17;;;14.50;99.90;;;;;;5011895;28;20461;-68
2022/11/15 12:27:59;;;;;;;1.43;1.30;;;14.40;99.90;;;;;;5012489;28;20454;-68
2022/11/15 12:30:37;;;;;;;2.17;1.40;;;14.40;99.90;;;;;;5011007;28;20489;-69
2022/11/15 12:33:04;;;;;;;1.90;1.40;;;14.30;99.90;;;;;;5011729;28;20458;-69
2022/11/15 12:35:38;;;;;;;1.80;1.63;;;14.20;99.90;;;;;;5011942;28;20804;-70
2022/11/15 12:38:05;;;;;;;1.50;1.17;;;14.10;99.90;;;;;;5011721;28;20478;-68
2022/11/15 12:40:37;;;;;;;2.17;1.50;;;14.00;99.90;;;;;;5010660;28;21019;-69
2022/11/15 12:43:30;;;;;;;3.23;1.37;;;14.00;99.90;;;;;;5011686;28;20457;-68
2022/11/15 12:46:05;;;;;;;2.30;1.40;;;13.90;99.90;;;;;;5010874;28;20462;-69
2022/11/15 12:48:50;;;;;;;1.90;1.30;;;13.80;99.90;;;;;;5011152;28;20458;-69
2022/11/15 12:51:21;;;;;;;1.83;1.40;;;13.80;99.90;;;;;;5010810;28;20486;-68
2022/11/15 12:53:48;;;;;;;4.30;2.33;;;13.80;99.90;;;;;;5011427;28;20468;-68
2022/11/15 12:56:25;;;;;;;2.17;1.57;;;13.80;99.90;;;;;;5010958;28;20466;-69
2022/11/15 12:58:55;;;;;;;1.80;1.57;;;13.80;99.90;;;;;;5011296;28;20560;-69
2022/11/15 13:01:57;;;;;;;2.13;1.90;;;13.80;99.90;;;;;;5010433;28;20512;-69
2022/11/15 13:04:28;;;;;;;2.17;1.90;;;13.80;99.90;;;;;;5011084;28;20461;-69
2022/11/15 13:06:59;;;;;;;1.40;1.30;;;13.70;99.90;;;;;;5011005;28;20465;-72
2022/11/15 13:09:52;;;;;;;1.33;1.23;;;13.60;99.90;;;;;;5010334;28;20558;-69
2022/11/15 13:12:52;;;;;;;5.10;1.77;;;13.50;99.90;;;;;;5010522;28;20821;-70
2022/11/15 13:15:34;;;;;;;1.20;1.10;;;13.40;99.90;;;;;;5010294;28;20457;-70
2022/11/15 13:18:32;;;;;;;1.67;1.57;;;13.40;99.90;;;;;;5011162;28;20486;-69
2022/11/15 13:20:59;;;;;;;2.20;1.60;;;13.40;99.90;;;;;;5009757;28;20655;-70
2022/11/15 13:23:28;;;;;;;3.60;1.57;;;13.40;99.90;;;;;;5010486;28;20458;-70
2022/11/15 13:26:13;;;;;;;2.03;1.87;;;13.40;99.90;;;;;;5010940;28;20454;-70
2022/11/15 13:28:44;;;;;;;2.63;1.60;;;13.40;99.90;;;;;;5010466;28;20549;-70
2022/11/15 13:31:31;;;;;;;2.03;1.67;;;13.50;99.90;;;;;;5010299;28;20486;-69